Time;durP1;ratioP1;P1;durP2;ratioP2;P2;SDS_P1;SDS_P2;PMS_P1;PMS_P2;Temp;Humidity;BMP_temperature;BMP_pressure;BME280_temperature;BME280_humidity;BME280_pressure;Samples;Min_cycle;Max_cycle;Signal;HPM_P1;HPM_P2
2022/10/12 00:00:53;;;;;;;35.67;19.00;;;;;;;3.26;100.00;102437.69;5137052;27;20015;-45
2022/10/12 00:03:19;;;;;;;34.25;17.52;;;;;;;3.26;100.00;102442.78;5137213;27;20046;-47
2022/10/12 00:05:44;;;;;;;28.05;15.85;;;;;;;3.26;100.00;102432.56;5136202;27;20023;-47
2022/10/12 00:08:09;;;;;;;32.15;17.05;;;;;;;3.28;100.00;102438.72;5136870;27;20030;-47
2022/10/12 00:10:40;;;;;;;36.47;17.98;;;;;;;3.27;100.00;102435.25;5136972;27;20023;-49
2022/10/12 00:13:05;;;;;;;40.72;20.30;;;;;;;3.39;100.00;102435.38;5136251;27;20023;-47
2022/10/12 00:15:31;;;;;;;27.33;16.45;;;;;;;3.36;100.00;102430.03;5136818;27;20034;-47
2022/10/12 00:17:56;;;;;;;29.25;15.55;;;;;;;3.32;100.00;102428.00;5137077;27;20454;-47
2022/10/12 00:20:21;;;;;;;29.52;15.50;;;;;;;3.29;100.00;102423.53;5135972;27;20035;-47
2022/10/12 00:22:47;;;;;;;26.73;13.65;;;;;;;3.31;100.00;102428.75;5136537;27;20381;-48
2022/10/12 00:25:12;;;;;;;23.08;14.32;;;;;;;3.23;100.00;102428.13;5136880;27;20039;-47
2022/10/12 00:27:37;;;;;;;27.58;15.27;;;;;;;3.24;100.00;102429.91;5134599;27;20023;-49
2022/10/12 00:30:03;;;;;;;30.77;15.05;;;;;;;3.11;100.00;102434.69;5136813;27;20050;-46
2022/10/12 00:32:28;;;;;;;25.02;14.38;;;;;;;3.12;100.00;102433.94;5136612;27;20027;-49
2022/10/12 00:34:53;;;;;;;25.55;14.63;;;;;;;3.04;100.00;102429.88;5135570;27;20080;-49
2022/10/12 00:37:19;;;;;;;24.92;13.05;;;;;;;2.97;100.00;102436.97;5136440;27;20023;-49
2022/10/12 00:39:45;;;;;;;35.60;14.95;;;;;;;3.01;100.00;102434.66;5136361;27;20023;-47
2022/10/12 00:42:11;;;;;;;32.15;15.55;;;;;;;3.02;100.00;102437.38;5135735;27;20027;-49
2022/10/12 00:44:43;;;;;;;27.55;14.65;;;;;;;2.91;100.00;102438.97;5135995;27;20528;-49
2022/10/12 00:47:49;;;;;;;23.42;14.23;;;;;;;2.94;100.00;102444.34;5136270;27;20019;-47
2022/10/12 00:50:25;;;;;;;22.38;14.95;;;;;;;3.00;100.00;102438.00;5052907;28;20427;-48
2022/10/12 00:53:02;;;;;;;24.98;14.88;;;;;;;3.01;100.00;102434.66;5124885;27;20035;-48
2022/10/12 00:55:33;;;;;;;28.88;15.15;;;;;;;3.06;100.00;102433.41;5135619;27;20100;-48
2022/10/12 00:57:59;;;;;;;23.92;15.07;;;;;;;3.08;100.00;102430.25;5136182;27;20023;-45
2022/10/12 01:00:25;;;;;;;27.38;15.02;;;;;;;3.18;100.00;102438.69;5135883;27;20367;-48
2022/10/12 01:02:52;;;;;;;30.13;16.45;;;;;;;3.15;100.00;102433.31;5135066;27;20091;-48
2022/10/12 01:05:18;;;;;;;29.58;16.45;;;;;;;3.26;100.00;102433.47;5135872;27;20418;-48
2022/10/12 01:07:43;;;;;;;26.73;15.73;;;;;;;3.28;100.00;102426.84;5135814;27;20403;-49
2022/10/12 01:10:09;;;;;;;30.05;16.25;;;;;;;3.33;100.00;102429.78;5135152;27;20508;-45
2022/10/12 01:12:35;;;;;;;25.63;15.93;;;;;;;3.36;100.00;102430.03;5135689;27;20035;-46
2022/10/12 01:15:01;;;;;;;26.85;15.70;;;;;;;3.42;100.00;102430.56;5135713;27;20454;-46
2022/10/12 01:17:48;;;;;;;33.25;15.73;;;;;;;3.50;100.00;102422.66;5135339;27;20027;-47
2022/10/12 01:20:32;;;;;;;33.47;15.47;;;;;;;3.54;100.00;102424.69;5135792;27;20035;-48
2022/10/12 01:23:04;;;;;;;24.95;14.15;;;;;;;3.49;100.00;102411.56;5134866;27;20035;-48
2022/10/12 01:25:51;;;;;;;21.15;13.20;;;;;;;3.50;100.00;102413.38;5135470;27;20535;-45
2022/10/12 01:28:31;;;;;;;23.52;12.70;;;;;;;3.56;100.00;102407.88;5135513;27;20547;-49
2022/10/12 01:31:23;;;;;;;26.65;13.88;;;;;;;3.55;100.00;102406.09;5134705;27;20042;-48
2022/10/12 01:34:17;;;;;;;30.60;16.95;;;;;;;3.62;100.00;102399.06;5135017;27;20481;-49
2022/10/12 01:36:47;;;;;;;25.33;14.15;;;;;;;3.54;100.00;102397.56;5134965;27;20033;-46
2022/10/12 01:39:33;;;;;;;25.00;12.68;;;;;;;3.44;100.00;102397.56;5135068;27;20034;-47
2022/10/12 01:42:06;;;;;;;24.40;13.88;;;;;;;3.42;100.00;102399.97;5135167;27;20027;-48
2022/10/12 01:44:31;;;;;;;25.23;14.50;;;;;;;3.44;100.00;102397.56;5134437;27;20023;-47
2022/10/12 01:46:57;;;;;;;30.90;15.05;;;;;;;3.43;100.00;102391.56;5134868;27;20037;-48
2022/10/12 01:49:26;;;;;;;28.02;15.63;;;;;;;3.47;100.00;102385.06;5135205;27;20033;-48
2022/10/12 01:51:57;;;;;;;29.92;16.58;;;;;;;3.50;100.00;102392.97;5133938;27;20019;-47
2022/10/12 01:54:59;;;;;;;29.17;15.77;;;;;;;3.50;100.00;102387.88;5134900;27;20485;-49
2022/10/12 01:57:53;;;;;;;31.63;16.48;;;;;;;3.41;100.00;102382.03;5135002;27;20106;-49
2022/10/12 02:00:19;;;;;;;28.52;15.23;;;;;;;3.40;100.00;102375.13;5134853;27;20055;-47
2022/10/12 02:03:16;;;;;;;26.73;15.15;;;;;;;3.40;100.00;102386.19;5134514;27;20062;-48
2022/10/12 02:05:49;;;;;;;24.92;13.75;;;;;;;3.33;100.00;102385.56;5133888;27;20035;-49
2022/10/12 02:08:32;;;;;;;24.35;13.10;;;;;;;3.31;100.00;102389.66;5134846;27;20054;-48
2022/10/12 02:11:16;;;;;;;26.80;14.80;;;;;;;3.30;100.00;102381.09;5134717;27;20031;-47
2022/10/12 02:13:46;;;;;;;26.40;15.88;;;;;;;3.30;100.00;102373.47;5133707;27;20031;-47
2022/10/12 02:16:17;;;;;;;27.33;15.98;;;;;;;3.28;100.00;102375.00;5134739;27;20034;-46
2022/10/12 02:18:46;;;;;;;31.45;17.02;;;;;;;3.28;100.00;102370.78;5134231;27;20395;-46
2022/10/12 02:21:16;;;;;;;36.35;16.98;;;;;;;3.28;100.00;102373.34;5133694;27;20126;-47
2022/10/12 02:23:43;;;;;;;30.05;16.83;;;;;;;3.31;100.00;102370.16;5133958;27;20423;-46
2022/10/12 02:26:11;;;;;;;30.45;17.83;;;;;;;3.32;100.00;102368.47;5133803;27;20098;-48
2022/10/12 02:28:37;;;;;;;26.73;16.17;;;;;;;3.33;100.00;102360.09;5134194;27;20473;-48
2022/10/12 02:31:24;;;;;;;24.30;16.10;;;;;;;3.29;100.00;102367.47;5134444;27;20034;-47
2022/10/12 02:34:10;;;;;;;20.73;14.38;;;;;;;3.29;100.00;102366.56;5133340;27;20075;-49
2022/10/12 02:36:49;;;;;;;20.70;13.83;;;;;;;3.14;100.00;102363.66;5134327;27;20034;-48
2022/10/12 02:39:20;;;;;;;23.20;14.88;;;;;;;3.10;100.00;102366.72;5134478;27;20023;-47
2022/10/12 02:41:59;;;;;;;26.17;15.82;;;;;;;3.04;100.00;102366.19;5133275;27;20028;-48
2022/10/12 02:44:30;;;;;;;22.60;16.17;;;;;;;2.96;100.00;102366.41;5134018;27;20030;-49
2022/10/12 02:46:58;;;;;;;29.52;15.80;;;;;;;2.91;100.00;102367.69;5134265;27;20038;-47
2022/10/12 02:49:25;;;;;;;24.90;16.77;;;;;;;2.94;100.00;102362.88;5132742;27;20028;-47
2022/10/12 02:51:52;;;;;;;36.65;19.27;;;;;;;2.91;100.00;102362.59;5134011;27;20110;-48
2022/10/12 02:54:17;;;;;;;33.85;18.85;;;;;;;2.90;100.00;102363.34;5133209;27;20389;-49
2022/10/12 02:56:45;;;;;;;31.45;17.65;;;;;;;2.76;100.00;102354.53;5133645;27;20470;-48
2022/10/12 02:59:14;;;;;;;27.02;16.55;;;;;;;2.76;100.00;102356.19;5133962;27;21169;-49
2022/10/12 03:01:40;;;;;;;24.25;16.67;;;;;;;2.71;100.00;102347.25;5132935;27;20535;-48
2022/10/12 03:04:05;;;;;;;29.85;18.75;;;;;;;2.76;100.00;102346.00;5133806;28;20055;-50
2022/10/12 03:06:31;;;;;;;29.63;18.20;;;;;;;2.70;100.00;102342.91;5133743;28;20050;-48
2022/10/12 03:08:56;;;;;;;28.83;18.23;;;;;;;2.69;100.00;102344.59;5133102;28;20046;-48
2022/10/12 03:11:22;;;;;;;29.40;18.63;;;;;;;2.69;100.00;102342.03;5133830;28;20390;-48
2022/10/12 03:13:51;;;;;;;31.40;18.27;;;;;;;2.70;100.00;102341.28;5133721;28;20019;-48
2022/10/12 03:16:16;;;;;;;25.63;17.02;;;;;;;2.67;100.00;102341.00;5132843;28;20398;-49
2022/10/12 03:18:42;;;;;;;28.13;17.25;;;;;;;2.64;100.00;102346.72;5133765;28;20015;-47
2022/10/12 03:21:07;;;;;;;26.85;18.00;;;;;;;2.67;100.00;102337.56;5133712;28;20023;-48
2022/10/12 03:23:32;;;;;;;29.20;17.80;;;;;;;2.68;100.00;102337.69;5132671;28;20024;-47
2022/10/12 03:25:58;;;;;;;25.98;16.40;;;;;;;2.54;100.00;102328.88;5133646;28;20030;-47
2022/10/12 03:28:23;;;;;;;28.42;16.75;;;;;;;2.46;100.00;102338.41;5133822;28;20031;-48
2022/10/12 03:30:48;;;;;;;22.88;16.33;;;;;;;2.44;100.00;102337.38;5132773;28;20027;-47
2022/10/12 03:33:14;;;;;;;30.35;17.65;;;;;;;2.44;100.00;102334.84;5133733;28;20027;-48
2022/10/12 03:35:43;;;;;;;31.27;17.83;;;;;;;2.43;100.00;102332.19;5133387;28;20023;-47
2022/10/12 03:38:08;;;;;;;30.75;19.30;;;;;;;2.43;100.00;102334.72;5132854;28;20034;-47
2022/10/12 03:40:34;;;;;;;29.55;20.05;;;;;;;2.50;100.00;102331.94;5133167;28;20031;-45
2022/10/12 03:43:00;;;;;;;28.88;18.08;;;;;;;2.41;100.00;102331.13;5133673;28;20024;-48
2022/10/12 03:45:25;;;;;;;25.33;17.75;;;;;;;2.37;100.00;102329.97;5132993;28;20022;-48
2022/10/12 03:47:50;;;;;;;29.85;19.38;;;;;;;2.41;100.00;102326.94;5133128;28;20096;-47
2022/10/12 03:50:15;;;;;;;35.65;20.98;;;;;;;2.54;100.00;102338.19;5133618;28;20030;-47
2022/10/12 03:52:41;;;;;;;38.28;22.52;;;;;;;2.50;100.00;102333.59;5132607;28;20479;-48
2022/10/12 03:55:06;;;;;;;32.75;21.58;;;;;;;2.49;100.00;102327.59;5133386;28;20110;-47
2022/10/12 03:57:31;;;;;;;33.80;20.92;;;;;;;2.49;100.00;102324.16;5132362;28;20393;-48
2022/10/12 03:59:57;;;;;;;31.90;21.23;;;;;;;2.55;100.00;102329.78;5133512;28;20015;-47
2022/10/12 04:02:22;;;;;;;38.05;22.38;;;;;;;2.59;100.00;102321.66;5136656;27;20031;-48
2022/10/12 04:04:47;;;;;;;34.75;20.60;;;;;;;2.56;100.00;102319.72;5135982;27;20039;-48
2022/10/12 04:07:13;;;;;;;34.35;22.13;;;;;;;2.55;100.00;102320.50;5137348;27;20027;-48
2022/10/12 04:09:38;;;;;;;31.42;20.88;;;;;;;2.53;100.00;102316.03;5136940;27;20019;-47
2022/10/12 04:12:03;;;;;;;27.77;18.48;;;;;;;2.43;100.00;102322.00;5136210;27;20378;-47
2022/10/12 04:14:29;;;;;;;29.95;18.48;;;;;;;2.39;100.00;102319.91;5137145;27;20462;-47
2022/10/12 04:16:54;;;;;;;29.05;18.17;;;;;;;2.40;100.00;102324.25;5136625;27;20106;-47
2022/10/12 04:19:20;;;;;;;27.80;18.73;;;;;;;2.50;100.00;102315.78;5136178;27;20023;-49
2022/10/12 04:21:45;;;;;;;26.27;18.00;;;;;;;2.40;100.00;102312.44;5136721;27;20377;-48
2022/10/12 04:24:10;;;;;;;30.10;19.25;;;;;;;2.38;100.00;102310.53;5136763;27;20027;-46
2022/10/12 04:26:35;;;;;;;30.77;19.42;;;;;;;2.42;100.00;102321.09;5135614;27;20106;-48
2022/10/12 04:29:01;;;;;;;30.77;19.52;;;;;;;2.44;100.00;102318.66;5136619;27;20104;-48
2022/10/12 04:31:26;;;;;;;29.35;19.70;;;;;;;2.42;100.00;102313.44;5136895;27;20027;-48
2022/10/12 04:33:55;;;;;;;28.15;19.02;;;;;;;2.41;100.00;102326.03;5135705;27;20449;-48
2022/10/12 04:36:21;;;;;;;35.05;20.08;;;;;;;2.39;100.00;102317.38;5136662;27;20066;-49
2022/10/12 04:38:47;;;;;;;27.95;19.95;;;;;;;2.43;100.00;102314.38;5136253;27;20023;-48
2022/10/12 04:41:12;;;;;;;32.65;20.63;;;;;;;2.43;100.00;102316.91;5135642;27;20411;-49
2022/10/12 04:43:37;;;;;;;34.08;19.70;;;;;;;2.38;100.00;102315.63;5136036;27;20031;-49
2022/10/12 04:46:02;;;;;;;33.42;21.15;;;;;;;2.42;100.00;102315.13;5136522;27;20493;-49
2022/10/12 04:48:28;;;;;;;30.60;19.50;;;;;;;2.38;100.00;102320.72;5135497;27;20100;-47
2022/10/12 04:50:53;;;;;;;26.83;17.75;;;;;;;2.32;100.00;102331.22;5136073;27;20034;-48
2022/10/12 04:53:18;;;;;;;24.83;17.75;;;;;;;2.33;100.00;102321.97;5136125;27;20444;-48
2022/10/12 04:55:44;;;;;;;30.35;18.00;;;;;;;2.32;100.00;102337.97;5135042;27;20080;-48
2022/10/12 04:58:09;;;;;;;33.67;18.58;;;;;;;2.30;100.00;102333.63;5136064;27;20027;-48
2022/10/12 05:00:34;;;;;;;30.30;18.73;;;;;;;2.33;100.00;102327.06;5136021;27;20474;-49
2022/10/12 05:03:00;;;;;;;37.92;21.50;;;;;;;2.33;100.00;102332.13;5135195;27;20023;-49
2022/10/12 05:05:25;;;;;;;34.40;22.05;;;;;;;2.33;100.00;102321.97;5136034;27;20076;-48
2022/10/12 05:07:51;;;;;;;29.70;18.95;;;;;;;2.27;100.00;102323.22;5135068;27;20084;-48
2022/10/12 05:10:16;;;;;;;29.80;17.70;;;;;;;2.21;100.00;102322.66;5135787;27;20023;-48
2022/10/12 05:12:42;;;;;;;33.90;20.75;;;;;;;2.25;100.00;102328.94;5135097;27;20370;-47
2022/10/12 05:15:08;;;;;;;32.75;21.35;;;;;;;2.25;100.00;102324.72;5134991;27;20458;-49
2022/10/12 05:17:33;;;;;;;34.95;22.17;;;;;;;2.25;100.00;102318.75;5135486;27;20035;-47
2022/10/12 05:19:58;;;;;;;28.02;18.58;;;;;;;2.21;100.00;102314.13;5135781;27;20530;-48
2022/10/12 05:22:24;;;;;;;24.52;16.38;;;;;;;2.01;100.00;102309.84;5134867;27;20027;-48
2022/10/12 05:24:49;;;;;;;24.90;17.02;;;;;;;2.03;100.00;102304.16;5135204;27;20045;-49
2022/10/12 05:27:14;;;;;;;34.28;19.60;;;;;;;2.06;100.00;102306.06;5135806;27;20023;-47
2022/10/12 05:29:39;;;;;;;30.95;19.27;;;;;;;2.10;100.00;102303.03;5134482;27;20034;-48
2022/10/12 05:32:05;;;;;;;29.90;18.08;;;;;;;2.02;100.00;102309.09;5135628;27;20438;-46
2022/10/12 05:34:30;;;;;;;27.70;17.85;;;;;;;1.93;100.00;102304.97;5135322;27;20023;-44
2022/10/12 05:36:57;;;;;;;28.90;18.40;;;;;;;1.96;100.00;102297.63;5134583;27;20028;-48
2022/10/12 05:39:22;;;;;;;28.25;18.63;;;;;;;1.92;100.00;102303.19;5135151;27;20038;-45
2022/10/12 05:41:47;;;;;;;31.27;18.75;;;;;;;1.97;100.00;102301.94;5135167;27;20019;-48
2022/10/12 05:44:13;;;;;;;29.65;19.90;;;;;;;1.96;100.00;102305.28;5134112;27;20378;-48
2022/10/12 05:46:38;;;;;;;30.42;19.75;;;;;;;2.00;100.00;102310.63;5135040;27;20027;-46
2022/10/12 05:49:04;;;;;;;33.53;19.50;;;;;;;1.99;100.00;102307.19;5135048;27;20043;-47
2022/10/12 05:51:29;;;;;;;31.02;19.98;;;;;;;2.03;100.00;102300.69;5134236;27;20068;-48
2022/10/12 05:53:54;;;;;;;36.33;20.45;;;;;;;2.05;100.00;102300.06;5134802;27;20023;-48
2022/10/12 05:56:20;;;;;;;36.35;22.58;;;;;;;2.07;100.00;102295.16;5135137;27;20023;-49
2022/10/12 05:58:45;;;;;;;33.60;19.98;;;;;;;2.08;100.00;102299.44;5134038;27;20015;-49
2022/10/12 06:01:12;;;;;;;31.48;20.73;;;;;;;2.08;100.00;102305.44;5135142;27;20102;-48
2022/10/12 06:03:38;;;;;;;29.45;19.00;;;;;;;2.11;100.00;102299.75;5134442;27;20031;-47
2022/10/12 06:06:05;;;;;;;30.40;20.58;;;;;;;2.12;100.00;102311.69;5133917;27;20478;-46
2022/10/12 06:08:30;;;;;;;29.40;20.40;;;;;;;2.15;100.00;102296.69;5134420;27;20090;-43
2022/10/12 06:10:56;;;;;;;31.05;22.25;;;;;;;2.24;100.00;102300.03;5134861;27;20094;-47
2022/10/12 06:13:22;;;;;;;33.90;23.58;;;;;;;2.31;100.00;102298.91;5133854;27;20151;-48
2022/10/12 06:15:48;;;;;;;40.67;23.85;;;;;;;2.40;100.00;102298.81;5134413;27;20023;-48
2022/10/12 06:18:14;;;;;;;33.75;22.58;;;;;;;2.44;100.00;102306.84;5133860;27;20076;-48
2022/10/12 06:20:40;;;;;;;29.38;21.88;;;;;;;2.41;100.00;102303.16;5134275;27;20110;-46
2022/10/12 06:23:05;;;;;;;34.25;21.08;;;;;;;2.46;100.00;102304.44;5134195;27;20110;-48
2022/10/12 06:25:30;;;;;;;29.08;18.55;;;;;;;2.51;100.00;102302.28;5132783;27;20023;-46
2022/10/12 06:27:55;;;;;;;32.05;19.20;;;;;;;2.52;100.00;102304.97;5134365;27;20025;-48
2022/10/12 06:30:21;;;;;;;28.58;18.95;;;;;;;2.55;100.00;102301.78;5134471;27;20023;-47
2022/10/12 06:32:46;;;;;;;30.55;21.17;;;;;;;2.66;100.00;102297.59;5133248;27;20019;-48
2022/10/12 06:35:11;;;;;;;35.20;22.35;;;;;;;2.75;100.00;102295.84;5134116;27;20028;-48
2022/10/12 06:37:37;;;;;;;41.05;23.85;;;;;;;2.87;100.00;102299.44;5134031;27;20027;-49
2022/10/12 06:40:04;;;;;;;44.67;25.65;;;;;;;2.98;100.00;102297.75;5133405;27;20031;-48
2022/10/12 06:42:29;;;;;;;40.38;24.10;;;;;;;3.02;100.00;102304.94;5134081;27;20541;-48
2022/10/12 06:44:54;;;;;;;38.47;24.35;;;;;;;3.15;100.00;102299.19;5133872;27;20119;-48
2022/10/12 06:47:20;;;;;;;39.80;24.48;;;;;;;3.26;100.00;102302.63;5133196;27;20067;-49
2022/10/12 06:49:45;;;;;;;35.20;23.85;;;;;;;3.37;100.00;102303.50;5133818;27;20053;-47
2022/10/12 06:52:10;;;;;;;37.30;25.67;;;;;;;3.48;100.00;102301.84;5134032;27;20023;-47
2022/10/12 06:54:36;;;;;;;39.42;26.48;;;;;;;3.57;100.00;102303.47;5133151;27;20331;-49
2022/10/12 06:57:01;;;;;;;62.08;34.13;;;;;;;3.71;100.00;102298.63;5133915;27;20027;-47
2022/10/12 06:59:26;;;;;;;65.00;36.20;;;;;;;3.84;100.00;102298.81;5133982;27;20176;-49
2022/10/12 07:01:52;;;;;;;58.95;34.53;;;;;;;3.91;100.00;102300.19;5132886;27;20036;-48
2022/10/12 07:04:17;;;;;;;58.47;34.60;;;;;;;3.94;100.00;102303.03;5133714;27;20035;-48
2022/10/12 07:06:43;;;;;;;56.30;36.45;;;;;;;3.96;100.00;102301.47;5133708;28;20386;-49
2022/10/12 07:09:08;;;;;;;54.90;35.08;;;;;;;3.99;100.00;102305.91;5132910;28;20031;-48
2022/10/12 07:11:34;;;;;;;57.88;36.03;;;;;;;4.01;100.00;102304.41;5133812;28;20025;-49
2022/10/12 07:13:59;;;;;;;57.10;36.25;;;;;;;4.06;100.00;102295.44;5133898;28;20382;-48
2022/10/12 07:16:24;;;;;;;53.83;33.72;;;;;;;4.10;100.00;102293.25;5132938;28;20046;-48
2022/10/12 07:18:50;;;;;;;55.50;35.65;;;;;;;4.15;100.00;102293.63;5133549;28;20466;-46
2022/10/12 07:21:15;;;;;;;51.42;33.92;;;;;;;4.20;100.00;102299.09;5133547;28;20015;-47
2022/10/12 07:23:40;;;;;;;58.72;32.50;;;;;;;4.22;100.00;102290.78;5132499;28;20034;-47
2022/10/12 07:26:06;;;;;;;56.25;31.35;;;;;;;4.26;100.00;102290.25;5133856;28;20023;-47
2022/10/12 07:28:33;;;;;;;54.13;32.05;;;;;;;4.24;100.00;102286.69;5132602;28;20030;-49
2022/10/12 07:31:04;;;;;;;51.53;30.05;;;;;;;4.24;100.00;102290.91;5133837;28;20019;-48
2022/10/12 07:33:31;;;;;;;50.92;31.92;;;;;;;4.24;100.00;102286.69;5133673;28;20023;-48
2022/10/12 07:35:57;;;;;;;48.97;31.25;;;;;;;4.27;100.00;102284.38;5133927;27;20023;-47
2022/10/12 07:38:22;;;;;;;52.15;33.00;;;;;;;4.31;100.00;102289.72;5137846;27;20415;-48
2022/10/12 07:40:47;;;;;;;63.80;34.90;;;;;;;4.44;100.00;102289.88;5137557;27;20128;-49
2022/10/12 07:43:12;;;;;;;58.75;35.58;;;;;;;4.58;100.00;102289.31;5136882;27;20027;-46
2022/10/12 07:45:38;;;;;;;55.53;34.78;;;;;;;4.63;100.00;102304.09;5137198;27;20419;-48
2022/10/12 07:48:04;;;;;;;50.42;34.65;;;;;;;4.69;100.00;102296.91;5137273;27;20047;-48
2022/10/12 07:50:29;;;;;;;58.78;35.10;;;;;;;4.73;100.00;102294.69;5136679;27;20530;-48
2022/10/12 07:52:54;;;;;;;59.28;37.97;;;;;;;4.94;100.00;102298.03;5137045;27;20019;-48
2022/10/12 07:55:20;;;;;;;61.03;39.30;;;;;;;5.15;100.00;102295.31;5137292;27;20015;-49
2022/10/12 07:57:45;;;;;;;70.38;38.08;;;;;;;5.36;100.00;102289.97;5136471;27;20071;-49
2022/10/12 08:00:11;;;;;;;68.38;40.15;;;;;;;5.60;100.00;102296.91;5137443;27;20027;-47
2022/10/12 08:02:36;;;;;;;59.40;36.25;;;;;;;5.80;100.00;102297.47;5136987;27;20045;-49
2022/10/12 08:05:01;;;;;;;59.65;35.78;;;;;;;6.01;100.00;102302.38;5136447;27;20102;-49
2022/10/12 08:07:27;;;;;;;60.85;35.60;;;;;;;6.09;100.00;102299.59;5136963;27;20482;-49
2022/10/12 08:09:52;;;;;;;67.95;36.72;;;;;;;6.20;100.00;102291.81;5136976;27;20072;-47
2022/10/12 08:12:17;;;;;;;59.08;35.10;;;;;;;6.28;100.00;102300.03;5136362;27;20023;-45
2022/10/12 08:14:42;;;;;;;60.33;36.47;;;;;;;6.41;100.00;102302.66;5136853;27;20068;-47
2022/10/12 08:17:08;;;;;;;72.95;38.88;;;;;;;6.58;100.00;102296.13;5136978;27;20058;-49
2022/10/12 08:19:34;;;;;;;60.13;36.25;;;;;;;6.69;100.00;102300.31;5135962;27;20019;-49
2022/10/12 08:22:00;;;;;;;59.53;35.35;;;;;;;6.77;100.00;102298.28;5136877;27;20023;-49
2022/10/12 08:24:25;;;;;;;61.88;37.10;;;;;;;6.90;100.00;102297.47;5136958;27;20076;-49
2022/10/12 08:26:50;;;;;;;60.88;38.28;;;;;;;7.12;100.00;102293.78;5135880;27;20054;-49
2022/10/12 08:29:15;;;;;;;61.55;38.65;;;;;;;7.29;100.00;102290.66;5136723;27;20027;-49
2022/10/12 08:31:41;;;;;;;77.63;38.63;;;;;;;7.58;100.00;102296.81;5135968;27;20478;-46
2022/10/12 08:34:07;;;;;;;59.03;38.92;;;;;;;7.67;100.00;102293.94;5136406;27;20149;-49
2022/10/12 08:36:32;;;;;;;99.47;53.05;;;;;;;8.14;100.00;102293.53;5136283;27;20023;-47
2022/10/12 08:38:58;;;;;;;61.95;38.85;;;;;;;8.10;100.00;102286.41;5135886;27;20106;-45
2022/10/12 08:41:46;;;;;;;67.97;38.53;;;;;;;8.29;100.00;102283.31;5136432;27;20098;-49
2022/10/12 08:44:50;;;;;;;67.80;39.00;;;;;;;8.50;100.00;102286.34;5136477;27;20015;-49
2022/10/12 08:47:30;;;;;;;74.85;39.38;;;;;;;8.82;100.00;102282.28;5134458;27;20069;-46
2022/10/12 08:49:59;;;;;;;64.88;40.50;;;;;;;9.10;100.00;102281.31;5136468;27;20022;-49
2022/10/12 08:52:33;;;;;;;62.30;38.20;;;;;;;9.38;98.88;102285.50;5136198;27;20373;-48
2022/10/12 08:55:25;;;;;;;64.38;37.22;;;;;;;9.50;93.92;102286.22;5135435;27;20480;-48
2022/10/12 08:57:50;;;;;;;65.95;36.95;;;;;;;9.77;95.99;102282.53;5136175;27;20084;-50
2022/10/12 09:00:16;;;;;;;63.20;35.60;;;;;;;9.88;92.23;102278.88;5135383;27;20023;-50
2022/10/12 09:02:55;;;;;;;61.13;34.95;;;;;;;10.26;92.07;102279.22;5135794;27;20033;-50
2022/10/12 09:05:32;;;;;;;73.97;35.92;;;;;;;10.47;91.57;102282.97;5135960;27;20094;-48
2022/10/12 09:08:05;;;;;;;63.80;33.13;;;;;;;10.51;88.88;102290.06;5135077;27;20359;-47
2022/10/12 09:10:55;;;;;;;61.00;32.83;;;;;;;10.67;86.94;102285.72;5135692;27;20111;-45
2022/10/12 09:13:54;;;;;;;55.92;31.40;;;;;;;10.87;88.05;102292.78;5135848;27;20051;-50
2022/10/12 09:16:26;;;;;;;57.10;31.67;;;;;;;10.91;83.28;102298.09;5094698;27;20042;-49
2022/10/12 09:18:57;;;;;;;55.38;31.70;;;;;;;11.39;83.84;102301.41;5135721;27;20023;-48
2022/10/12 09:21:26;;;;;;;53.80;31.73;;;;;;;11.80;81.37;102304.19;5135049;27;20023;-49
2022/10/12 09:23:55;;;;;;;59.33;31.13;;;;;;;11.93;80.19;102305.69;5135341;27;20027;-50
2022/10/12 09:26:30;;;;;;;58.40;31.75;;;;;;;12.06;79.82;102304.59;5135547;27;20023;-46
2022/10/12 09:28:57;;;;;;;55.95;31.20;;;;;;;12.43;77.99;102307.16;5135069;27;20095;-47
2022/10/12 09:31:47;;;;;;;52.10;31.52;;;;;;;12.76;76.22;102306.03;5135685;27;20046;-46
2022/10/12 09:34:12;;;;;;;55.83;31.88;;;;;;;13.04;73.43;102295.19;5135604;27;20034;-45
2022/10/12 09:36:40;;;;;;;56.72;32.10;;;;;;;13.35;70.63;102291.31;5133502;27;20031;-49
2022/10/12 09:39:20;;;;;;;56.00;33.25;;;;;;;13.67;73.18;102283.97;5135319;27;20023;-50
2022/10/12 09:41:47;;;;;;;54.15;31.05;;;;;;;14.16;68.92;102275.53;5135051;27;20039;-49
2022/10/12 09:44:27;;;;;;;54.95;32.35;;;;;;;14.16;69.40;102282.41;5134551;27;20023;-44
2022/10/12 09:47:01;;;;;;;55.05;31.02;;;;;;;14.56;67.98;102288.19;5134922;27;20031;-49
2022/10/12 09:49:40;;;;;;;54.92;30.08;;;;;;;14.56;67.17;102285.59;5134271;27;20034;-43
2022/10/12 09:52:06;;;;;;;51.75;29.17;;;;;;;14.63;64.53;102282.41;5135248;27;20034;-45
2022/10/12 09:54:32;;;;;;;54.55;28.85;;;;;;;14.93;63.27;102282.63;5134961;27;20084;-46
2022/10/12 09:56:57;;;;;;;49.88;29.02;;;;;;;14.89;62.62;102285.06;5134291;27;20469;-50
2022/10/12 09:59:26;;;;;;;49.10;28.48;;;;;;;14.70;63.17;102284.41;5134975;27;20019;-44
2022/10/12 10:02:12;;;;;;;54.97;29.63;;;;;;;14.78;65.49;102287.28;5134648;27;20027;-56
2022/10/12 10:04:38;;;;;;;50.45;27.73;;;;;;;15.09;63.87;102283.16;5133824;27;20490;-55
2022/10/12 10:07:27;;;;;;;51.55;28.45;;;;;;;15.62;64.90;102275.34;5134996;27;20047;-43
2022/10/12 10:10:08;;;;;;;52.17;27.42;;;;;;;15.97;64.25;102275.56;5134617;27;20023;-44
2022/10/12 10:12:39;;;;;;;46.97;26.27;;;;;;;15.99;59.38;102260.91;5134347;27;20027;-45
2022/10/12 10:15:18;;;;;;;49.22;25.95;;;;;;;16.17;61.72;102259.72;5134668;27;20423;-49
2022/10/12 10:17:52;;;;;;;48.58;26.40;;;;;;;16.30;59.92;102251.41;5133640;27;20029;-51
2022/10/12 10:20:32;;;;;;;51.05;25.98;;;;;;;16.69;57.94;102261.16;5134764;27;20110;-47
2022/10/12 10:22:59;;;;;;;51.80;27.95;;;;;;;16.44;58.01;102265.69;5134678;27;20031;-49
2022/10/12 10:25:25;;;;;;;45.60;27.35;;;;;;;16.27;57.22;102261.75;5133730;27;20019;-43
2022/10/12 10:28:20;;;;;;;51.72;25.63;;;;;;;16.36;61.35;102259.38;5134125;27;20034;-44
2022/10/12 10:31:16;;;;;;;43.08;24.65;;;;;;;16.59;59.12;102269.53;5134187;27;20483;-49
2022/10/12 10:33:42;;;;;;;45.92;25.58;;;;;;;16.61;56.51;102268.75;5134228;27;20026;-48
2022/10/12 10:36:25;;;;;;;51.58;26.95;;;;;;;16.40;57.96;102266.44;5134399;27;20020;-49
2022/10/12 10:38:54;;;;;;;59.97;25.33;;;;;;;16.49;57.81;102267.53;5133183;27;20082;-48
2022/10/12 10:41:20;;;;;;;48.35;23.40;;;;;;;16.80;54.27;102261.44;5134124;27;20027;-48
2022/10/12 10:43:47;;;;;;;41.72;21.88;;;;;;;16.73;54.54;102268.22;5134043;27;20084;-48
2022/10/12 10:46:15;;;;;;;49.10;22.23;;;;;;;16.88;54.06;102256.44;5133352;27;20023;-50
2022/10/12 10:49:05;;;;;;;;;;;;;;;17.46;56.56;102256.16;5134118;27;20054;-47
2022/10/12 10:51:45;;;;;;;44.47;21.73;;;;;;;17.24;54.84;102250.44;5134177;27;19943;-43
2022/10/12 10:54:27;;;;;;;43.97;20.25;;;;;;;17.69;54.88;102249.75;5133486;27;20117;-47
2022/10/12 10:57:03;;;;;;;47.40;21.40;;;;;;;17.78;52.79;102255.16;5133902;27;20031;-46
2022/10/12 10:59:36;;;;;;;44.35;18.88;;;;;;;18.33;50.19;102244.16;5133400;27;20027;-47
2022/10/12 11:02:29;;;;;;;40.70;17.92;;;;;;;18.29;49.85;102236.25;5133865;27;20386;-47
2022/10/12 11:05:37;;;;;;;41.90;17.15;;;;;;;18.73;49.52;102223.16;5122366;27;20035;-49
2022/10/12 11:08:11;;;;;;;37.45;18.27;;;;;;;18.33;48.30;102230.22;5133411;28;20352;-46
2022/10/12 11:10:46;;;;;;;43.50;17.55;;;;;;;18.15;48.45;102230.75;5135675;27;20027;-47
2022/10/12 11:13:51;;;;;;;44.53;17.90;;;;;;;18.65;48.87;102224.75;5140890;27;20027;-45
2022/10/12 11:16:39;;;;;;;40.97;16.90;;;;;;;18.70;49.00;102218.75;5125825;27;20035;-49
2022/10/12 11:19:22;;;;;;;;;;;;;;;19.10;48.56;102209.88;5141118;27;20038;-48
2022/10/12 11:22:11;;;;;;;37.90;14.80;;;;;;;18.21;47.01;102213.47;5139795;27;19911;-47